Terminal Aerodrome Forecast
Issued by NWS

Home | Current Version | Previous Version | Text Only | Print | Product List | Glossary On
Versions: 1 2 3 4 5 6 7 8 9 10 11 12 13 14
523
FTUS46 KMFR 290538
TAFOTH
TAF
KOTH 290538Z 2906/3006 VRB03KT P6SM OVC018
     FM291700 34012KT P6SM SCT018
     FM292100 34016G24KT P6SM SKC=

USA.gov is the U.S. government's official web portal to all federal, state and local government web resources and services.